Livingstone, Zambia

8:59 AM CAT on September 20, 2014 (GMT +0200)
Livingstone | Change Station
CLOSE
Current Station
Airport
Location: Livingstone,
Elevation: 3235 ft
Nearby Weather Stations

Elev 3235 ft 17.82 °S, 25.82 °E | Updated 59 minutes ago

Clear
Clear
75 °F
Feels Like 75 °F
N
7
Wind Variable Wind from ESE

Today
High -- | Low -- °F
--% Chance of Precip.
Yesterday
High -- | Low -- °F
Precip. -- in
6:08 AM 6:12 PM
Waning Crescent, 14% visible
Pressure 30.09 in
Visibility -9999.0 miles
Clouds
Dew Point 37 °F
Humidity 25%
Rainfall 0.00 in
Snow Depth Not available.
UV Not available.
Pollen Not available.
Air Quality Not available.
Flu Activity Not available.
METAR FLLI 200600Z 12006KT CAVOK 24/03 Q1019 NOSIG

More Conditions Fewer Conditions

Pressure 30.09 in
Visibility -9999.0 miles
Clouds
Dew Point 37 °F
Humidity 25%
Rainfall 0.00 in
Snow Depth Not available.
UV Not available.
Pollen Not available.
Air Quality Not available.
Flu Activity Not available.
METAR FLLI 200600Z 12006KT CAVOK 24/03 Q1019 NOSIG

More Conditions Fewer Conditions

10-Day Weather Forecast

Almanac

Astronomy

Sep. 20, 2014 Rise Set
Actual Time 6:08 AM CAT 6:12 PM CAT
Civil Twilight 5:46 AM CAT 6:34 PM CAT
Nautical Twilight 5:21 AM CAT 6:59 PM CAT
Astronomical Twilight 4:56 AM CAT 7:24 PM CAT
Moon 3:26 AM CAT 3:15 PM CAT
Length of Visible Light 12h 47m
Length of Day
12h 04m
Tomorrow will be 0m 59s longer.
Waning Crescent, 14% of the Moon is Illuminated
Today
Waning Crescent
Sep 24
New
Oct 1
First Quarter
Oct 8
Full
Oct 15
Last Quarter

Yesterday's Extremes

Country Highs Country Lows

Community

WunderPhotos

Upload Photos

1,754,779 photos uploaded!

WunderBlogs® & News

Nearby

Snow Depth

Not available.

Earthquake Activity

City Distance Mag. Time & Date
No recent earthquake activity has been reported nearby.
Minimum magnitude displayed is 2.5.

Coastal Water Temperatures

Place Temperature
No Stations Reporting

Nearby Weather Stations